Time;durP1;ratioP1;P1;durP2;ratioP2;P2;SDS_P1;SDS_P2;PMS_P1;PMS_P2;Temp;Humidity;BMP_temperature;BMP_pressure;BME280_temperature;BME280_humidity;BME280_pressure;Samples;Min_cycle;Max_cycle;Signal;HPM_P1;HPM_P2
2023/04/14 00:00:01;;;;;;;;;;;7.30;99.90;;;;;;5017146;28;19917;-76
2023/04/14 00:02:33;;;;;;;;;;;7.30;99.90;;;;;;5002079;28;19906;-76
2023/04/14 00:05:00;;;;;;;;;;;7.30;99.90;;;;;;5016449;28;19909;-76
2023/04/14 00:07:25;;;;;;;;;;;7.30;99.90;;;;;;4981983;28;19912;-76
2023/04/14 00:09:53;;;;;;;;;;;7.20;99.90;;;;;;5003582;28;19913;-76
2023/04/14 00:12:19;;;;;;;;;;;7.10;99.90;;;;;;4983955;28;19940;-75
2023/04/14 00:14:48;;;;;;;;;;;7.00;99.90;;;;;;5001918;28;19937;-77
2023/04/14 00:17:20;;;;;;;;;;;6.90;99.90;;;;;;5006809;28;20052;-76
2023/04/14 00:19:46;;;;;;;;;;;6.90;99.90;;;;;;5007858;28;19905;-77
2023/04/14 00:22:14;;;;;;;;;;;6.90;99.90;;;;;;4991041;28;19912;-76
2023/04/14 00:24:54;;;;;;;;;;;6.90;99.90;;;;;;5014679;28;19916;-76
2023/04/14 00:27:19;;;;;;;;;;;6.90;99.90;;;;;;4984582;28;20254;-76
2023/04/14 00:29:49;;;;;;;;;;;7.00;99.90;;;;;;5006293;28;19917;-77
2023/04/14 00:32:15;;;;;;;;;;;7.00;99.90;;;;;;4990666;28;20448;-76
2023/04/14 00:34:48;;;;;;;;;;;7.10;99.90;;;;;;5001526;28;19913;-76
2023/04/14 00:37:23;;;;;;;;;;;7.10;99.90;;;;;;4983509;28;19911;-76
2023/04/14 00:39:48;;;;;;;;;;;7.10;99.90;;;;;;5001638;28;19936;-76
2023/04/14 00:42:21;;;;;;;;;;;7.10;99.90;;;;;;5002550;28;19905;-76
2023/04/14 00:44:53;;;;;;;;;;;7.10;99.90;;;;;;4987973;28;19920;-76
2023/04/14 00:47:21;;;;;;;;;;;7.10;99.90;;;;;;4997652;28;19905;-76
2023/04/14 00:49:47;;;;;;;;;;;7.10;99.90;;;;;;4993249;28;19925;-76
2023/04/14 00:52:20;;;;;;;;;;;7.10;99.90;;;;;;5001644;28;19913;-76
2023/04/14 00:54:46;;;;;;;;;;;7.10;99.90;;;;;;5011808;28;19909;-76
2023/04/14 00:57:19;;;;;;;;;;;7.10;99.90;;;;;;4984645;28;20282;-76
2023/04/14 00:59:46;;;;;;;;;;;7.00;99.90;;;;;;5014340;28;19907;-76
2023/04/14 01:02:12;;;;;;;;;;;7.00;99.90;;;;;;5006732;28;19992;-76
2023/04/14 01:04:44;;;;;;;;;;;7.00;99.90;;;;;;4983714;28;20023;-76
2023/04/14 01:07:14;;;;;;;;;;;6.90;99.90;;;;;;4991490;28;19913;-76
2023/04/14 01:09:43;;;;;;;;;;;7.00;99.90;;;;;;4986026;28;20306;-76
2023/04/14 01:12:24;;;;;;;;;;;6.90;99.90;;;;;;4984816;28;19952;-75
2023/04/14 01:15:10;;;;;;;;;;;6.90;99.90;;;;;;4986683;28;19913;-76
2023/04/14 01:17:43;;;;;;;;;;;6.90;99.90;;;;;;4989361;28;19928;-75
2023/04/14 01:20:26;;;;;;;;;;;6.90;99.90;;;;;;5012749;28;20025;-76
2023/04/14 01:22:54;;;;;;;;;;;6.90;99.90;;;;;;5003586;28;21278;-76
2023/04/14 01:28:27;;;;;;;;;;;6.80;99.90;;;;;;5002187;28;19913;-76
2023/04/14 01:31:13;;;;;;;;;;;6.80;99.90;;;;;;4989732;28;19977;-76
2023/04/14 01:33:40;;;;;;;;;;;6.70;99.90;;;;;;5016008;28;19916;-75
2023/04/14 01:36:12;;;;;;;;;;;6.60;99.90;;;;;;4986318;28;19995;-76
2023/04/14 01:38:39;;;;;;;;;;;6.60;99.90;;;;;;5003544;28;20322;-76
2023/04/14 01:41:06;;;;;;;;;;;6.60;99.90;;;;;;4984247;28;19920;-76
2023/04/14 01:43:41;;;;;;;;;;;6.60;99.90;;;;;;5002571;28;19916;-76
2023/04/14 01:46:09;;;;;;;;;;;6.50;99.90;;;;;;4988708;28;19909;-76
2023/04/14 01:48:35;;;;;;;;;;;6.40;99.90;;;;;;4984241;28;19920;-75
2023/04/14 01:51:01;;;;;;;;;;;6.40;99.90;;;;;;4984084;28;20837;-75
2023/04/14 01:53:27;;;;;;;;;;;6.40;99.90;;;;;;4990811;28;19909;-76
2023/04/14 01:55:54;;;;;;;;;;;6.30;99.90;;;;;;4991861;28;20393;-76
2023/04/14 01:58:20;;;;;;;;;;;6.30;99.90;;;;;;5006572;28;20004;-75
2023/04/14 02:00:48;;;;;;;;;;;6.20;99.90;;;;;;5008627;28;19952;-75
2023/04/14 02:03:14;;;;;;;;;;;6.10;99.90;;;;;;5008579;28;19992;-75
2023/04/14 02:05:50;;;;;;;;;;;6.10;99.90;;;;;;4989959;28;20785;-75
2023/04/14 02:08:18;;;;;;;;;;;6.00;99.90;;;;;;4995396;28;20052;-76
2023/04/14 02:10:53;;;;;;;;;;;6.00;99.90;;;;;;4987687;28;19988;-76
2023/04/14 02:13:20;;;;;;;;;;;5.90;99.90;;;;;;5006069;28;19905;-76
2023/04/14 02:15:58;;;;;;;;;;;5.90;99.90;;;;;;4987236;28;19906;-76
2023/04/14 02:18:27;;;;;;;;;;;5.80;99.90;;;;;;4988283;28;19963;-75
2023/04/14 02:21:01;;;;;;;;;;;5.80;99.90;;;;;;5004530;28;20004;-76
2023/04/14 02:23:27;;;;;;;;;;;5.80;99.90;;;;;;5002849;28;20410;-76
2023/04/14 02:25:56;;;;;;;;;;;5.70;99.90;;;;;;5004757;28;20415;-76
2023/04/14 02:28:22;;;;;;;;;;;5.70;99.90;;;;;;5005291;28;19971;-76
2023/04/14 02:30:53;;;;;;;;;;;5.70;99.90;;;;;;4987589;28;19937;-76
2023/04/14 02:33:22;;;;;;;;;;;5.60;99.90;;;;;;5001620;28;20617;-76
2023/04/14 02:35:52;;;;;;;;;;;5.60;99.90;;;;;;5004864;28;19943;-77
2023/04/14 02:38:19;;;;;;;;;;;5.50;99.90;;;;;;4988153;28;19908;-76
2023/04/14 02:40:46;;;;;;;;;;;5.50;99.90;;;;;;4987545;28;19929;-76
2023/04/14 02:43:15;;;;;;;;;;;5.50;99.90;;;;;;4987590;28;19964;-75
2023/04/14 02:45:44;;;;;;;;;;;5.40;99.90;;;;;;5009040;28;19909;-75
2023/04/14 02:48:12;;;;;;;;;;;5.40;99.90;;;;;;5004732;28;19905;-75
2023/04/14 02:50:41;;;;;;;;;;;5.40;99.90;;;;;;5004076;28;19912;-75
2023/04/14 02:53:09;;;;;;;;;;;5.40;99.90;;;;;;5008886;28;19905;-75
2023/04/14 02:55:38;;;;;;;;;;;5.30;99.90;;;;;;4999583;28;19909;-75
2023/04/14 02:58:06;;;;;;;;;;;5.30;99.90;;;;;;4988740;28;19916;-76
2023/04/14 03:00:33;;;;;;;;;;;5.30;99.90;;;;;;4987689;28;19967;-75
2023/04/14 03:03:02;;;;;;;;;;;5.30;99.90;;;;;;5016740;28;19905;-75
2023/04/14 03:05:30;;;;;;;;;;;5.30;99.90;;;;;;4988865;28;19913;-75
2023/04/14 03:07:59;;;;;;;;;;;5.20;99.90;;;;;;4988083;28;19913;-75
2023/04/14 03:10:25;;;;;;;;;;;5.20;99.90;;;;;;4992595;28;19995;-76
2023/04/14 03:12:53;;;;;;;;;;;5.20;99.90;;;;;;4989407;28;20058;-75
2023/04/14 03:15:20;;;;;;;;;;;5.20;99.90;;;;;;5003605;28;19909;-75
2023/04/14 03:17:52;;;;;;;;;;;5.20;99.90;;;;;;4993386;28;19972;-75
2023/04/14 03:20:28;;;;;;;;;;;5.20;99.90;;;;;;4985405;28;19905;-75
2023/04/14 03:23:04;;;;;;;;;;;5.10;99.90;;;;;;5003350;28;20355;-75
2023/04/14 03:25:37;;;;;;;;;;;5.10;99.90;;;;;;4991676;28;19921;-76
2023/04/14 03:28:10;;;;;;;;;;;5.00;99.90;;;;;;5002914;28;20000;-75
2023/04/14 03:30:39;;;;;;;;;;;4.90;99.90;;;;;;4992014;28;19906;-76
2023/04/14 03:33:07;;;;;;;;;;;4.90;99.90;;;;;;4987866;28;20003;-75
2023/04/14 03:35:37;;;;;;;;;;;4.80;99.90;;;;;;4991290;28;19917;-76
2023/04/14 03:38:07;;;;;;;;;;;4.80;99.90;;;;;;4989407;28;19984;-75
2023/04/14 03:40:39;;;;;;;;;;;4.70;99.90;;;;;;5010143;28;19914;-76
2023/04/14 03:43:08;;;;;;;;;;;4.70;99.90;;;;;;4989262;28;20677;-75
2023/04/14 03:45:37;;;;;;;;;;;4.60;99.90;;;;;;4990759;28;19909;-76
2023/04/14 03:48:04;;;;;;;;;;;4.60;99.90;;;;;;4985157;28;19920;-75
2023/04/14 03:50:39;;;;;;;;;;;4.50;99.90;;;;;;5009464;28;19905;-76
2023/04/14 03:53:17;;;;;;;;;;;4.40;99.90;;;;;;4988973;28;20004;-75
2023/04/14 03:55:44;;;;;;;;;;;4.40;99.90;;;;;;5004481;28;19996;-75
2023/04/14 03:58:17;;;;;;;;;;;4.40;99.90;;;;;;4990234;28;20374;-76
2023/04/14 04:00:44;;;;;;;;;;;4.30;99.90;;;;;;4986451;28;19905;-75
2023/04/14 04:03:18;;;;;;;;;;;4.40;99.90;;;;;;5005925;28;19942;-77
2023/04/14 04:05:45;;;;;;;;;;;4.30;99.90;;;;;;4996066;28;19916;-76
2023/04/14 04:08:19;;;;;;;;;;;4.30;99.90;;;;;;5007558;28;19933;-76
2023/04/14 04:10:47;;;;;;;;;;;4.30;99.90;;;;;;5008764;28;19913;-76
2023/04/14 04:13:15;;;;;;;;;;;4.30;99.90;;;;;;5004094;28;20016;-75
2023/04/14 04:15:45;;;;;;;;;;;4.20;99.90;;;;;;4988949;28;19964;-75
2023/04/14 04:18:14;;;;;;;;;;;4.10;99.90;;;;;;5002136;28;19960;-75
2023/04/14 04:20:40;;;;;;;;;;;4.20;99.90;;;;;;4988843;28;19905;-75
2023/04/14 04:23:12;;;;;;;;;;;4.10;99.90;;;;;;5001764;28;19960;-76
2023/04/14 04:25:41;;;;;;;;;;;4.10;99.90;;;;;;5018306;28;19913;-74
2023/04/14 04:28:08;;;;;;;;;;;4.10;99.90;;;;;;4986598;28;19914;-74
2023/04/14 04:30:37;;;;;;;;;;;4.10;99.90;;;;;;5004815;28;20004;-75
2023/04/14 04:33:06;;;;;;;;;;;4.10;99.90;;;;;;4986722;28;19921;-74
2023/04/14 04:35:38;;;;;;;;;;;4.10;99.90;;;;;;4984477;28;19919;-75
2023/04/14 04:38:07;;;;;;;;;;;4.10;99.90;;;;;;5001554;28;19911;-73
2023/04/14 04:40:39;;;;;;;;;;;4.10;99.90;;;;;;5008810;28;19912;-74
2023/04/14 04:43:09;;;;;;;;;;;4.10;99.90;;;;;;4986276;28;19979;-75
2023/04/14 04:45:44;;;;;;;;;;;4.10;99.90;;;;;;5000525;28;20580;-74
2023/04/14 04:48:13;;;;;;;;;;;4.10;99.90;;;;;;4986006;28;20996;-75
2023/04/14 04:50:41;;;;;;;;;;;4.10;99.90;;;;;;5013762;28;19905;-75
2023/04/14 04:53:07;;;;;;;;;;;4.10;99.90;;;;;;5009499;28;19917;-75
2023/04/14 04:55:36;;;;;;;;;;;4.10;99.90;;;;;;4983789;28;19914;-75
2023/04/14 04:58:08;;;;;;;;;;;4.10;99.90;;;;;;4996440;28;19952;-75
2023/04/14 05:00:33;;;;;;;;;;;4.10;99.90;;;;;;4990475;28;20371;-74
2023/04/14 05:02:59;;;;;;;;;;;4.10;99.90;;;;;;5005506;28;19951;-75
2023/04/14 05:05:26;;;;;;;;;;;4.10;99.90;;;;;;5001292;28;19909;-74
2023/04/14 05:07:51;;;;;;;;;;;4.00;99.90;;;;;;4983009;28;20393;-74
2023/04/14 05:10:17;;;;;;;;;;;4.10;99.90;;;;;;4987927;28;19905;-76
2023/04/14 05:12:44;;;;;;;;;;;4.00;99.90;;;;;;4984898;28;19905;-75
2023/04/14 05:15:09;;;;;;;;;;;4.10;99.90;;;;;;4989311;28;19905;-75
2023/04/14 05:17:37;;;;;;;;;;;4.00;99.90;;;;;;4985376;28;19914;-75
2023/04/14 05:20:04;;;;;;;;;;;4.00;99.90;;;;;;4983984;28;19910;-75
2023/04/14 05:22:34;;;;;;;;;;;4.10;99.90;;;;;;4980761;28;19955;-75
2023/04/14 05:25:01;;;;;;;;;;;4.00;99.90;;;;;;5004313;28;20012;-75
2023/04/14 05:27:27;;;;;;;;;;;4.10;99.90;;;;;;4992451;28;19916;-76
2023/04/14 05:29:55;;;;;;;;;;;4.00;99.90;;;;;;5010782;28;19914;-75
2023/04/14 05:32:27;;;;;;;;;;;4.00;99.90;;;;;;5008918;28;19994;-75
2023/04/14 05:34:53;;;;;;;;;;;4.00;99.90;;;;;;5007592;28;20019;-75
2023/04/14 05:37:23;;;;;;;;;;;4.00;99.90;;;;;;4990408;28;19905;-75
2023/04/14 05:39:53;;;;;;;;;;;4.10;99.90;;;;;;5005639;28;19905;-75
2023/04/14 05:42:24;;;;;;;;;;;4.10;99.90;;;;;;5006397;28;19912;-74
2023/04/14 05:44:55;;;;;;;;;;;4.10;99.90;;;;;;4990368;28;19915;-75
2023/04/14 05:47:27;;;;;;;;;;;4.10;99.90;;;;;;5008145;28;19909;-75
2023/04/14 05:49:54;;;;;;;;;;;4.10;99.90;;;;;;5006609;28;20362;-76
2023/04/14 05:52:21;;;;;;;;;;;4.10;99.90;;;;;;4990371;28;19917;-75
2023/04/14 05:54:47;;;;;;;;;;;4.10;99.90;;;;;;5005024;28;19905;-75
2023/04/14 05:57:13;;;;;;;;;;;4.10;99.90;;;;;;4992426;28;19996;-76
2023/04/14 05:59:41;;;;;;;;;;;4.10;99.90;;;;;;4987343;28;20016;-76
2023/04/14 06:02:07;;;;;;;;;;;4.10;99.90;;;;;;5008525;28;19931;-75
2023/04/14 06:04:38;;;;;;;;;;;4.10;99.90;;;;;;5007396;28;19921;-75
2023/04/14 06:07:09;;;;;;;;;;;4.10;99.90;;;;;;5009074;28;19952;-75
2023/04/14 06:09:37;;;;;;;;;;;4.10;99.90;;;;;;5006668;28;19906;-74
2023/04/14 06:12:03;;;;;;;;;;;4.10;99.90;;;;;;5008509;28;19932;-75
2023/04/14 06:14:30;;;;;;;;;;;4.10;99.90;;;;;;5004170;28;19905;-74
2023/04/14 06:16:59;;;;;;;;;;;4.10;99.90;;;;;;4989550;28;19920;-74
2023/04/14 06:19:28;;;;;;;;;;;4.10;99.90;;;;;;5004408;28;20000;-75
2023/04/14 06:21:57;;;;;;;;;;;4.10;99.90;;;;;;4989594;28;19913;-75
2023/04/14 06:24:22;;;;;;;;;;;4.10;99.90;;;;;;5004818;28;19966;-74
2023/04/14 06:27:05;;;;;;;;;;;4.20;99.90;;;;;;5007607;28;20414;-74
2023/04/14 06:29:31;;;;;;;;;;;4.10;99.90;;;;;;5012254;28;19920;-75
2023/04/14 06:31:59;;;;;;;;;;;4.20;99.90;;;;;;5007695;28;20407;-74
2023/04/14 06:34:25;;;;;;;;;;;4.20;99.90;;;;;;4992308;28;19920;-74
2023/04/14 06:36:55;;;;;;;;;;;4.30;99.90;;;;;;5007384;28;19905;-75
2023/04/14 06:39:29;;;;;;;;;;;4.20;99.90;;;;;;4986934;28;20216;-75
2023/04/14 06:41:55;;;;;;;;;;;4.30;99.90;;;;;;5007166;28;20595;-76
2023/04/14 06:44:22;;;;;;;;;;;4.30;99.90;;;;;;4986982;28;20294;-75
2023/04/14 06:46:48;;;;;;;;;;;4.30;99.90;;;;;;4990968;28;19916;-74
2023/04/14 06:49:35;;;;;;;;;;;4.30;99.90;;;;;;5005472;28;20000;-75
2023/04/14 06:52:01;;;;;;;;;;;4.30;99.90;;;;;;5018642;28;19932;-74
2023/04/14 06:54:33;;;;;;;;;;;4.30;99.90;;;;;;4986918;28;20515;-75
2023/04/14 06:57:00;;;;;;;;;;;4.30;99.90;;;;;;4987294;28;19911;-74
2023/04/14 06:59:28;;;;;;;;;;;4.40;99.90;;;;;;5005395;28;20051;-74
2023/04/14 07:01:59;;;;;;;;;;;4.40;99.90;;;;;;4994681;28;19909;-75
2023/04/14 07:04:25;;;;;;;;;;;4.50;99.90;;;;;;4992434;28;19913;-74
2023/04/14 07:06:51;;;;;;;;;;;4.60;99.90;;;;;;5000844;28;19921;-75
2023/04/14 07:09:18;;;;;;;;;;;4.60;99.90;;;;;;4992008;28;19913;-75
2023/04/14 07:11:45;;;;;;;;;;;4.60;99.90;;;;;;4997143;28;19912;-74
2023/04/14 07:14:11;;;;;;;;;;;4.60;99.90;;;;;;5005085;28;20172;-75
2023/04/14 07:16:39;;;;;;;;;;;4.60;99.90;;;;;;5014905;28;19915;-74
2023/04/14 07:19:06;;;;;;;;;;;4.60;99.90;;;;;;5010726;28;20367;-75
2023/04/14 07:21:31;;;;;;;;;;;4.60;99.90;;;;;;5011159;28;20043;-75
2023/04/14 07:23:58;;;;;;;;;;;4.70;99.90;;;;;;5005212;28;20059;-74
2023/04/14 07:26:24;;;;;;;;;;;4.70;99.90;;;;;;5009123;28;20004;-74
2023/04/14 07:28:50;;;;;;;;;;;4.70;99.90;;;;;;4987113;28;19912;-74
2023/04/14 07:31:23;;;;;;;;;;;4.70;99.90;;;;;;4983250;28;19909;-75
2023/04/14 07:33:50;;;;;;;;;;;4.80;99.90;;;;;;4983759;28;19920;-75
2023/04/14 07:36:23;;;;;;;;;;;4.80;99.90;;;;;;4985596;28;19906;-74
2023/04/14 07:38:49;;;;;;;;;;;4.80;99.90;;;;;;4984403;28;20442;-75
2023/04/14 07:41:17;;;;;;;;;;;4.80;99.90;;;;;;4993708;28;20346;-75
2023/04/14 07:43:44;;;;;;;;;;;4.90;99.90;;;;;;5002003;28;20621;-75
2023/04/14 07:46:11;;;;;;;;;;;4.90;99.90;;;;;;5004678;28;19906;-76
2023/04/14 07:48:39;;;;;;;;;;;4.90;99.90;;;;;;5008169;28;19906;-74
2023/04/14 07:51:05;;;;;;;;;;;5.00;99.90;;;;;;4984712;28;20252;-74
2023/04/14 07:53:31;;;;;;;;;;;5.00;99.90;;;;;;5001987;28;19929;-75
2023/04/14 07:56:00;;;;;;;;;;;5.00;99.90;;;;;;4983613;28;19916;-74
2023/04/14 07:58:27;;;;;;;;;;;5.00;99.90;;;;;;4985814;28;19912;-74
2023/04/14 08:00:54;;;;;;;;;;;5.00;99.90;;;;;;4987690;28;19953;-74
2023/04/14 08:03:25;;;;;;;;;;;5.00;99.90;;;;;;5009340;28;19916;-74
2023/04/14 08:05:51;;;;;;;;;;;5.00;99.90;;;;;;5006045;28;20463;-74
2023/04/14 08:08:18;;;;;;;;;;;5.00;99.90;;;;;;5009399;28;19905;-74
2023/04/14 08:10:45;;;;;;;;;;;5.00;99.90;;;;;;4985415;28;19911;-74
2023/04/14 08:13:10;;;;;;;;;;;5.00;99.90;;;;;;4991506;28;19912;-75
2023/04/14 08:15:37;;;;;;;;;;;5.00;99.90;;;;;;5004179;28;19909;-74
2023/04/14 08:18:04;;;;;;;;;;;5.00;99.90;;;;;;5005275;28;19909;-74
2023/04/14 08:20:40;;;;;;;;;;;5.00;99.90;;;;;;5005268;28;19913;-74
2023/04/14 08:23:10;;;;;;;;;;;5.00;99.90;;;;;;5015381;28;19986;-74
2023/04/14 08:25:39;;;;;;;;;;;5.00;99.90;;;;;;4987299;28;19955;-74
2023/04/14 08:28:07;;;;;;;;;;;5.00;99.90;;;;;;5007982;28;19929;-74
2023/04/14 08:30:32;;;;;;;;;;;5.00;99.90;;;;;;5002328;28;19909;-74
2023/04/14 08:32:59;;;;;;;;;;;5.00;99.90;;;;;;4987380;28;19911;-74
2023/04/14 08:35:25;;;;;;;;;;;5.00;99.90;;;;;;5005807;28;19916;-75
2023/04/14 08:37:52;;;;;;;;;;;5.00;99.90;;;;;;5004312;28;20039;-74
2023/04/14 08:40:20;;;;;;;;;;;5.00;99.90;;;;;;4991076;28;19909;-74
2023/04/14 08:42:47;;;;;;;;;;;5.00;99.90;;;;;;4985179;28;19905;-74
2023/04/14 08:45:22;;;;;;;;;;;5.00;99.90;;;;;;5002325;28;19913;-75
2023/04/14 08:47:55;;;;;;;;;;;5.10;99.90;;;;;;5009919;28;19924;-74
2023/04/14 08:50:24;;;;;;;;;;;5.10;99.90;;;;;;4985948;28;19967;-74
2023/04/14 08:52:59;;;;;;;;;;;5.00;99.90;;;;;;5006260;28;19959;-74
2023/04/14 08:55:27;;;;;;;;;;;5.00;99.90;;;;;;5004820;28;19909;-74
2023/04/14 08:57:56;;;;;;;;;;;5.00;99.90;;;;;;5004570;28;19913;-74
2023/04/14 09:00:22;;;;;;;;;;;4.90;99.90;;;;;;5005241;28;20019;-74
2023/04/14 09:02:49;;;;;;;;;;;4.90;99.90;;;;;;5001662;28;20788;-74
2023/04/14 09:05:17;;;;;;;;;;;4.90;99.90;;;;;;4988969;28;19964;-75
2023/04/14 09:07:43;;;;;;;;;;;4.90;99.90;;;;;;4985301;28;19906;-74
2023/04/14 09:10:09;;;;;;;;;;;4.90;99.90;;;;;;4990699;28;19936;-75
2023/04/14 09:12:40;;;;;;;;;;;4.90;99.90;;;;;;4984241;28;19916;-74
2023/04/14 09:15:07;;;;;;;;;;;4.80;99.90;;;;;;5003764;28;19928;-74
2023/04/14 09:17:35;;;;;;;;;;;4.80;99.90;;;;;;4989167;28;20002;-75
2023/04/14 09:20:01;;;;;;;;;;;4.80;99.90;;;;;;4991100;28;19944;-74
2023/04/14 09:22:26;;;;;;;;;;;4.70;99.90;;;;;;4980458;28;19948;-74
2023/04/14 09:24:58;;;;;;;;;;;4.70;99.90;;;;;;4990631;28;19967;-74
2023/04/14 09:27:24;;;;;;;;;;;4.70;99.90;;;;;;4984368;28;19913;-75
2023/04/14 09:29:55;;;;;;;;;;;4.70;99.90;;;;;;4984477;28;20274;-74
2023/04/14 09:32:20;;;;;;;;;;;4.60;99.90;;;;;;4985757;28;19909;-74
2023/04/14 09:34:49;;;;;;;;;;;4.60;99.90;;;;;;4978289;28;19959;-74
2023/04/14 09:37:16;;;;;;;;;;;4.60;99.90;;;;;;4989690;28;20337;-75
2023/04/14 09:39:59;;;;;;;;;;;4.60;99.90;;;;;;5001472;28;19905;-80
2023/04/14 09:42:45;;;;;;;;;;;4.50;99.90;;;;;;5001387;28;19913;-75
2023/04/14 09:45:11;;;;;;;;;;;4.50;99.90;;;;;;5012787;28;19909;-74
2023/04/14 09:47:38;;;;;;;;;;;4.50;99.90;;;;;;4993636;28;19910;-73
2023/04/14 09:50:03;;;;;;;;;;;4.50;99.90;;;;;;5004646;28;19913;-74
2023/04/14 09:52:36;;;;;;;;;;;4.50;99.90;;;;;;5005085;28;19912;-74
2023/04/14 09:55:03;;;;;;;;;;;4.40;99.90;;;;;;4985378;28;19936;-73
2023/04/14 09:57:29;;;;;;;;;;;4.40;99.90;;;;;;5014164;28;19909;-74
2023/04/14 09:59:55;;;;;;;;;;;4.40;99.90;;;;;;4993107;28;20036;-73
2023/04/14 10:02:21;;;;;;;;;;;4.40;99.90;;;;;;4996902;28;20027;-74
2023/04/14 10:05:02;;;;;;;;;;;4.30;99.90;;;;;;5003622;28;20259;-75
2023/04/14 10:07:27;;;;;;;;;;;4.20;99.90;;;;;;4988462;28;20533;-74
2023/04/14 10:09:53;;;;;;;;;;;4.20;99.90;;;;;;4999914;28;20366;-73
2023/04/14 10:12:21;;;;;;;;;;;4.20;99.90;;;;;;4990795;28;19952;-73
2023/04/14 10:14:47;;;;;;;;;;;4.30;99.90;;;;;;4995188;28;19905;-73
2023/04/14 10:17:13;;;;;;;;;;;4.30;99.90;;;;;;5008952;28;20282;-74
2023/04/14 10:19:39;;;;;;;;;;;4.30;99.90;;;;;;5010808;28;19912;-75
2023/04/14 10:22:04;;;;;;;;;;;4.30;99.90;;;;;;4991999;28;19909;-74
2023/04/14 10:24:33;;;;;;;;;;;4.30;99.90;;;;;;5006477;28;19913;-73
2023/04/14 10:27:01;;;;;;;;;;;4.30;99.90;;;;;;4988591;28;19991;-73
2023/04/14 10:29:27;;;;;;;;;;;4.30;99.90;;;;;;5003031;28;19910;-73
2023/04/14 10:31:56;;;;;;;;;;;4.40;99.90;;;;;;4989242;28;19909;-74
2023/04/14 10:34:23;;;;;;;;;;;4.40;99.90;;;;;;5008532;28;19912;-74
2023/04/14 10:36:49;;;;;;;;;;;4.50;99.90;;;;;;5007211;28;19920;-74
2023/04/14 10:39:23;;;;;;;;;;;4.50;99.90;;;;;;4991580;28;19916;-75
2023/04/14 10:41:51;;;;;;;;;;;4.50;99.90;;;;;;4988506;28;19914;-74
2023/04/14 10:44:25;;;;;;;;;;;4.50;99.90;;;;;;4986918;28;19909;-74
2023/04/14 10:46:55;;;;;;;;;;;4.50;99.90;;;;;;5000657;28;19909;-74
2023/04/14 10:49:43;;;;;;;;;;;4.60;99.90;;;;;;4986497;28;20363;-74
2023/04/14 10:52:15;;;;;;;;;;;4.60;99.90;;;;;;5016050;28;19940;-73
2023/04/14 10:54:59;;;;;;;;;;;4.70;99.90;;;;;;5006394;28;19905;-74
2023/04/14 10:57:27;;;;;;;;;;;4.60;99.90;;;;;;4991620;28;19909;-74
2023/04/14 10:59:57;;;;;;;;;;;4.60;99.90;;;;;;5003514;28;20366;-74
2023/04/14 11:02:30;;;;;;;;;;;4.60;99.90;;;;;;5008750;28;19920;-75
2023/04/14 11:04:59;;;;;;;;;;;4.50;99.90;;;;;;5004092;28;19921;-74
2023/04/14 11:07:27;;;;;;;;;;;4.60;99.90;;;;;;4989445;28;19905;-74
2023/04/14 11:09:56;;;;;;;;;;;4.70;99.90;;;;;;5005183;28;19948;-73
2023/04/14 11:12:26;;;;;;;;;;;4.70;99.90;;;;;;5007842;28;19955;-74
2023/04/14 11:15:01;;;;;;;;;;;4.70;99.90;;;;;;4984739;28;19913;-74
2023/04/14 11:17:29;;;;;;;;;;;4.60;99.90;;;;;;5004611;28;20609;-75
2023/04/14 11:19:56;;;;;;;;;;;4.50;99.90;;;;;;4987486;28;19906;-74
2023/04/14 11:22:44;;;;;;;;;;;4.50;99.90;;;;;;4983714;28;20349;-74
2023/04/14 11:25:15;;;;;;;;;;;4.70;99.90;;;;;;5015086;28;19913;-74
2023/04/14 11:27:50;;;;;;;;;;;4.70;99.90;;;;;;4990327;28;19905;-74
2023/04/14 11:30:17;;;;;;;;;;;4.70;99.90;;;;;;4989811;28;19905;-74
2023/04/14 11:32:44;;;;;;;;;;;4.70;99.90;;;;;;5005649;28;19992;-74
2023/04/14 11:35:11;;;;;;;;;;;4.80;99.90;;;;;;4991531;28;19905;-74
2023/04/14 11:37:41;;;;;;;;;;;4.80;99.90;;;;;;5007193;28;19916;-74
2023/04/14 11:40:14;;;;;;;;;;;4.70;99.90;;;;;;4988023;28;19909;-74
2023/04/14 11:42:45;;;;;;;;;;;4.70;99.90;;;;;;4987687;28;19916;-74
2023/04/14 11:45:17;;;;;;;;;;;4.70;99.90;;;;;;5017409;28;19913;-75
2023/04/14 11:48:01;;;;;;;;;;;4.70;99.90;;;;;;5009405;28;20243;-74
2023/04/14 11:50:30;;;;;;;;;;;4.80;99.90;;;;;;5004650;28;19909;-74
2023/04/14 11:52:58;;;;;;;;;;;4.80;99.90;;;;;;4988316;28;19913;-73
2023/04/14 11:55:25;;;;;;;;;;;4.80;99.90;;;;;;5005717;28;19913;-74
2023/04/14 11:57:56;;;;;;;;;;;4.90;99.90;;;;;;4985710;28;19928;-74
2023/04/14 12:00:23;;;;;;;;;;;4.80;99.90;;;;;;5004738;28;20314;-74
2023/04/14 12:02:51;;;;;;;;;;;4.90;99.90;;;;;;4986092;28;20000;-75
2023/04/14 12:05:24;;;;;;;;;;;4.90;99.90;;;;;;4983739;28;19986;-74
2023/04/14 12:07:56;;;;;;;;;;;4.90;99.90;;;;;;4989012;28;19909;-74
2023/04/14 12:10:30;;;;;;;;;;;4.90;99.90;;;;;;4986654;28;19948;-77
2023/04/14 12:13:03;;;;;;;;;;;5.20;99.90;;;;;;5006766;28;20000;-75
2023/04/14 12:15:31;;;;;;;;;;;5.50;99.90;;;;;;5019166;28;19919;-76
2023/04/14 12:17:58;;;;;;;;;;;5.70;99.90;;;;;;5006947;28;19917;-73
2023/04/14 12:20:25;;;;;;;;;;;5.70;99.90;;;;;;4984688;28;20439;-74
2023/04/14 12:23:00;;;;;;;;;;;5.60;99.90;;;;;;5003128;28;19909;-74
2023/04/14 12:25:29;;;;;;;;;;;5.30;99.90;;;;;;4988179;28;19944;-74
2023/04/14 12:27:56;;;;;;;;;;;5.20;99.90;;;;;;4986785;28;19928;-74
2023/04/14 12:30:22;;;;;;;;;;;5.10;99.90;;;;;;4988405;28;19916;-74
2023/04/14 12:32:51;;;;;;;;;;;5.00;99.90;;;;;;5005278;28;19913;-73
2023/04/14 12:35:21;;;;;;;;;;;5.00;99.90;;;;;;4995224;28;20515;-73
2023/04/14 12:37:48;;;;;;;;;;;4.90;99.90;;;;;;5002334;28;20323;-73
2023/04/14 12:40:15;;;;;;;;;;;4.90;99.90;;;;;;4979457;28;20055;-73
2023/04/14 12:42:51;;;;;;;;;;;4.90;99.90;;;;;;5007975;28;19974;-73
2023/04/14 12:45:16;;;;;;;;;;;4.90;99.90;;;;;;5012203;28;20341;-72
2023/04/14 12:47:53;;;;;;;;;;;5.40;99.90;;;;;;4986261;28;20006;-71
2023/04/14 12:50:22;;;;;;;;;;;5.50;99.90;;;;;;5000913;28;19914;-70
2023/04/14 12:52:48;;;;;;;;;;;5.70;99.90;;;;;;5006999;28;19913;-71
2023/04/14 12:55:27;;;;;;;;;;;5.80;99.90;;;;;;5000147;28;19962;-71
2023/04/14 12:57:53;;;;;;;;;;;5.80;99.90;;;;;;5003707;28;19913;-74
2023/04/14 13:00:24;;;;;;;;;;;5.70;99.90;;;;;;4989617;28;19916;-73
2023/04/14 13:02:56;;;;;;;;;;;5.50;99.90;;;;;;5002929;28;20008;-74
2023/04/14 13:05:25;;;;;;;;;;;5.30;99.90;;;;;;4988968;28;19978;-73
2023/04/14 13:07:51;;;;;;;;;;;5.10;99.90;;;;;;4998266;28;19909;-74
2023/04/14 13:10:17;;;;;;;;;;;5.10;99.90;;;;;;4984516;28;19948;-74
2023/04/14 13:12:42;;;;;;;;;;;5.10;99.90;;;;;;4997799;28;19941;-74
2023/04/14 13:15:10;;;;;;;;;;;5.20;99.90;;;;;;4987820;28;19932;-74
2023/04/14 13:17:36;;;;;;;;;;;5.20;99.90;;;;;;5004009;28;19914;-74
2023/04/14 13:20:03;;;;;;;;;;;5.30;99.90;;;;;;5007554;28;19913;-74
2023/04/14 13:22:33;;;;;;;;;;;5.40;99.90;;;;;;4983744;28;19959;-74
2023/04/14 13:25:05;;;;;;;;;;;5.30;99.90;;;;;;5005148;28;19920;-75
2023/04/14 13:27:30;;;;;;;;;;;5.40;99.90;;;;;;4986666;28;19916;-74
2023/04/14 13:29:57;;;;;;;;;;;5.40;99.90;;;;;;5003863;28;19909;-74
2023/04/14 13:32:24;;;;;;;;;;;5.40;99.90;;;;;;4986088;28;20559;-74
2023/04/14 13:35:00;;;;;;;;;;;5.50;99.90;;;;;;5004083;28;19959;-74
2023/04/14 13:37:26;;;;;;;;;;;5.40;99.90;;;;;;4980236;28;19906;-74
2023/04/14 13:39:58;;;;;;;;;;;5.40;99.90;;;;;;5001328;28;19976;-74
2023/04/14 13:42:25;;;;;;;;;;;5.40;99.90;;;;;;5007556;28;19913;-74
2023/04/14 13:44:51;;;;;;;;;;;5.50;99.90;;;;;;5006192;28;19916;-74
2023/04/14 13:47:18;;;;;;;;;;;5.60;99.90;;;;;;5010195;28;19909;-73
2023/04/14 13:49:44;;;;;;;;;;;5.60;99.90;;;;;;5006715;28;20003;-74
2023/04/14 13:52:10;;;;;;;;;;;5.60;99.90;;;;;;4991393;28;19921;-74
2023/04/14 13:54:36;;;;;;;;;;;5.60;99.90;;;;;;4984860;28;19909;-74
2023/04/14 13:57:04;;;;;;;;;;;5.60;99.90;;;;;;5011574;28;20043;-74
2023/04/14 13:59:29;;;;;;;;;;;5.70;99.90;;;;;;4991338;28;19916;-75
2023/04/14 14:01:56;;;;;;;;;;;5.80;99.90;;;;;;4988209;28;19909;-74
2023/04/14 14:04:21;;;;;;;;;;;5.80;99.90;;;;;;5003901;28;19928;-74
2023/04/14 14:06:52;;;;;;;;;;;5.80;99.90;;;;;;4990021;28;19921;-74
2023/04/14 14:09:17;;;;;;;;;;;5.80;99.90;;;;;;5012963;28;19905;-74
2023/04/14 14:11:45;;;;;;;;;;;5.90;99.90;;;;;;4990995;28;19912;-75
2023/04/14 14:14:12;;;;;;;;;;;5.80;99.90;;;;;;4990153;28;19909;-74
2023/04/14 14:16:38;;;;;;;;;;;5.80;99.90;;;;;;5006635;28;19905;-74
2023/04/14 14:19:07;;;;;;;;;;;5.70;99.90;;;;;;4993349;28;20309;-74
2023/04/14 14:21:39;;;;;;;;;;;5.70;99.90;;;;;;5012186;28;19913;-74
2023/04/14 14:24:05;;;;;;;;;;;5.70;99.90;;;;;;4987463;28;20001;-74
2023/04/14 14:26:31;;;;;;;;;;;5.60;99.90;;;;;;4986644;28;19908;-74
2023/04/14 14:28:58;;;;;;;;;;;5.60;99.90;;;;;;4987470;28;19916;-75
2023/04/14 14:31:27;;;;;;;;;;;5.60;99.90;;;;;;4987147;28;19920;-74
2023/04/14 14:33:54;;;;;;;;;;;5.60;99.90;;;;;;5004319;28;21335;-74
2023/04/14 14:36:20;;;;;;;;;;;5.60;99.90;;;;;;5012683;28;19928;-74
2023/04/14 14:38:46;;;;;;;;;;;5.60;99.90;;;;;;4988809;28;19909;-75
2023/04/14 14:41:12;;;;;;;;;;;5.60;99.90;;;;;;4989557;28;19913;-74
2023/04/14 14:43:37;;;;;;;;;;;5.50;99.90;;;;;;4987314;28;19905;-74